sensor_id;sensor_type;location;lat;lon;timestamp;pressure;altitude;pressure_sealevel;temperature;humidity
41062;BME280;26812;42.662;23.352;2022-10-19T00:01:20;95541.31;;;7.86;60.76
41062;BME280;26812;42.662;23.352;2022-10-19T00:03:48;95536.44;;;7.88;60.44
41062;BME280;26812;42.662;23.352;2022-10-19T00:06:24;95546.78;;;7.75;61.44
41062;BME280;26812;42.662;23.352;2022-10-19T00:09:12;95537.50;;;7.63;61.87
41062;BME280;26812;42.662;23.352;2022-10-19T00:11:39;95537.13;;;7.74;61.01
41062;BME280;26812;42.662;23.352;2022-10-19T00:14:06;95533.88;;;7.77;61.52
41062;BME280;26812;42.662;23.352;2022-10-19T00:16:34;95530.06;;;7.84;61.50
41062;BME280;26812;42.662;23.352;2022-10-19T00:19:05;95522.19;;;7.63;61.52
41062;BME280;26812;42.662;23.352;2022-10-19T00:21:31;95525.97;;;7.62;61.28
41062;BME280;26812;42.662;23.352;2022-10-19T00:23:56;95526.47;;;7.69;61.03
41062;BME280;26812;42.662;23.352;2022-10-19T00:26:22;95505.19;;;7.49;61.94
41062;BME280;26812;42.662;23.352;2022-10-19T00:28:48;95517.13;;;7.62;61.94
41062;BME280;26812;42.662;23.352;2022-10-19T00:31:15;95500.75;;;7.63;61.84
41062;BME280;26812;42.662;23.352;2022-10-19T00:33:42;95507.97;;;7.68;61.45
41062;BME280;26812;42.662;23.352;2022-10-19T00:36:23;95503.91;;;7.70;61.89
41062;BME280;26812;42.662;23.352;2022-10-19T00:38:50;95492.97;;;7.67;60.95
41062;BME280;26812;42.662;23.352;2022-10-19T00:41:18;95496.19;;;7.64;61.37
41062;BME280;26812;42.662;23.352;2022-10-19T00:46:15;95480.16;;;7.30;62.08
41062;BME280;26812;42.662;23.352;2022-10-19T00:48:40;95473.44;;;6.98;63.12
41062;BME280;26812;42.662;23.352;2022-10-19T00:51:06;95468.19;;;6.88;64.02
41062;BME280;26812;42.662;23.352;2022-10-19T00:53:31;95471.13;;;6.87;64.29
41062;BME280;26812;42.662;23.352;2022-10-19T00:55:59;95477.78;;;6.94;64.50
41062;BME280;26812;42.662;23.352;2022-10-19T00:58:27;95473.69;;;7.02;63.83
41062;BME280;26812;42.662;23.352;2022-10-19T01:00:52;95461.66;;;6.99;63.76
41062;BME280;26812;42.662;23.352;2022-10-19T01:03:19;95463.09;;;7.21;63.04
41062;BME280;26812;42.662;23.352;2022-10-19T01:05:45;95461.44;;;7.25;62.83
41062;BME280;26812;42.662;23.352;2022-10-19T01:08:11;95414.22;;;7.05;62.42
41062;BME280;26812;42.662;23.352;2022-10-19T01:10:48;95449.22;;;7.13;63.04
41062;BME280;26812;42.662;23.352;2022-10-19T01:13:36;95454.41;;;7.00;63.31
41062;BME280;26812;42.662;23.352;2022-10-19T01:16:18;95446.19;;;6.91;63.62
41062;BME280;26812;42.662;23.352;2022-10-19T01:19:11;95444.84;;;6.94;62.93
41062;BME280;26812;42.662;23.352;2022-10-19T01:21:48;95404.38;;;6.61;63.65
41062;BME280;26812;42.662;23.352;2022-10-19T01:24:49;95440.16;;;6.75;64.56
41062;BME280;26812;42.662;23.352;2022-10-19T01:27:36;95437.22;;;6.72;64.72
41062;BME280;26812;42.662;23.352;2022-10-19T01:32:43;95446.84;;;6.73;64.44
41062;BME280;26812;42.662;23.352;2022-10-19T01:40:52;95431.28;;;6.80;63.63
41062;BME280;26812;42.662;23.352;2022-10-19T01:45:57;95431.94;;;6.62;64.87
41062;BME280;26812;42.662;23.352;2022-10-19T01:48:28;95436.44;;;6.71;64.80
41062;BME280;26812;42.662;23.352;2022-10-19T01:51:11;95414.84;;;6.58;64.90
41062;BME280;26812;42.662;23.352;2022-10-19T01:53:43;95412.38;;;6.66;64.27
41062;BME280;26812;42.662;23.352;2022-10-19T01:56:11;95409.94;;;6.70;63.79
41062;BME280;26812;42.662;23.352;2022-10-19T01:58:38;95408.41;;;6.59;64.25
41062;BME280;26812;42.662;23.352;2022-10-19T02:01:08;95423.97;;;6.57;65.42
41062;BME280;26812;42.662;23.352;2022-10-19T02:03:34;95421.25;;;6.62;64.04
41062;BME280;26812;42.662;23.352;2022-10-19T02:06:04;95408.25;;;6.45;64.18
41062;BME280;26812;42.662;23.352;2022-10-19T02:08:35;95419.53;;;6.37;65.34
41062;BME280;26812;42.662;23.352;2022-10-19T02:11:03;95412.38;;;6.27;65.15
41062;BME280;26812;42.662;23.352;2022-10-19T02:13:29;95415.78;;;6.38;65.19
41062;BME280;26812;42.662;23.352;2022-10-19T02:15:58;95420.03;;;6.44;64.70
41062;BME280;26812;42.662;23.352;2022-10-19T02:18:29;95408.78;;;6.42;64.91
41062;BME280;26812;42.662;23.352;2022-10-19T02:20:57;95395.41;;;6.47;63.87
41062;BME280;26812;42.662;23.352;2022-10-19T02:23:25;95401.03;;;6.45;63.78
41062;BME280;26812;42.662;23.352;2022-10-19T02:25:52;95392.00;;;6.31;64.35
41062;BME280;26812;42.662;23.352;2022-10-19T02:28:18;95400.03;;;6.31;64.34
41062;BME280;26812;42.662;23.352;2022-10-19T02:30:44;95409.38;;;6.34;64.38
41062;BME280;26812;42.662;23.352;2022-10-19T02:33:10;95400.09;;;6.21;64.58
41062;BME280;26812;42.662;23.352;2022-10-19T02:35:37;95410.47;;;6.33;64.06
41062;BME280;26812;42.662;23.352;2022-10-19T02:38:03;95400.84;;;6.32;64.29
41062;BME280;26812;42.662;23.352;2022-10-19T02:40:36;95412.63;;;6.31;64.71
41062;BME280;26812;42.662;23.352;2022-10-19T02:43:05;95411.50;;;6.37;64.41
41062;BME280;26812;42.662;23.352;2022-10-19T02:45:37;95416.91;;;6.32;64.39
41062;BME280;26812;42.662;23.352;2022-10-19T02:48:11;95415.09;;;6.22;64.27
41062;BME280;26812;42.662;23.352;2022-10-19T02:50:42;95410.28;;;6.19;64.65
41062;BME280;26812;42.662;23.352;2022-10-19T02:53:08;95398.28;;;6.16;64.45
41062;BME280;26812;42.662;23.352;2022-10-19T02:55:33;95399.84;;;6.22;64.51
41062;BME280;26812;42.662;23.352;2022-10-19T02:57:59;95394.97;;;6.30;64.41
41062;BME280;26812;42.662;23.352;2022-10-19T03:00:24;95384.56;;;6.23;63.71
41062;BME280;26812;42.662;23.352;2022-10-19T03:02:50;95394.47;;;6.22;64.87
41062;BME280;26812;42.662;23.352;2022-10-19T03:05:15;95393.19;;;6.10;64.82
41062;BME280;26812;42.662;23.352;2022-10-19T03:07:41;95393.25;;;6.05;64.99
41062;BME280;26812;42.662;23.352;2022-10-19T03:10:07;95404.03;;;5.89;65.65
41062;BME280;26812;42.662;23.352;2022-10-19T03:12:33;95393.56;;;5.93;65.78
41062;BME280;26812;42.662;23.352;2022-10-19T03:14:58;95402.84;;;6.06;65.53
41062;BME280;26812;42.662;23.352;2022-10-19T03:17:24;95411.66;;;6.16;65.39
41062;BME280;26812;42.662;23.352;2022-10-19T03:19:49;95401.19;;;6.20;64.59
41062;BME280;26812;42.662;23.352;2022-10-19T03:22:15;95407.91;;;6.17;64.49
41062;BME280;26812;42.662;23.352;2022-10-19T03:24:40;95400.06;;;6.26;64.16
41062;BME280;26812;42.662;23.352;2022-10-19T03:27:06;95398.72;;;6.29;64.18
41062;BME280;26812;42.662;23.352;2022-10-19T03:29:31;95392.13;;;6.16;64.33
41062;BME280;26812;42.662;23.352;2022-10-19T03:31:56;95399.34;;;6.10;64.49
41062;BME280;26812;42.662;23.352;2022-10-19T03:34:22;95406.16;;;5.93;65.35
41062;BME280;26812;42.662;23.352;2022-10-19T03:36:47;95407.22;;;5.91;65.51
41062;BME280;26812;42.662;23.352;2022-10-19T03:39:14;95396.03;;;5.74;66.15
41062;BME280;26812;42.662;23.352;2022-10-19T03:41:40;95389.44;;;5.46;66.82
41062;BME280;26812;42.662;23.352;2022-10-19T03:44:06;95400.94;;;5.52;67.23
41062;BME280;26812;42.662;23.352;2022-10-19T03:46:32;95395.59;;;5.47;67.42
41062;BME280;26812;42.662;23.352;2022-10-19T03:48:58;95391.31;;;5.51;67.83
41062;BME280;26812;42.662;23.352;2022-10-19T03:51:26;95391.84;;;5.58;67.46
41062;BME280;26812;42.662;23.352;2022-10-19T03:54:02;95391.81;;;5.63;67.63
41062;BME280;26812;42.662;23.352;2022-10-19T03:56:30;95392.09;;;5.61;67.21
41062;BME280;26812;42.662;23.352;2022-10-19T03:59:10;95392.34;;;5.60;67.30
41062;BME280;26812;42.662;23.352;2022-10-19T04:01:56;95376.97;;;5.32;67.90
41062;BME280;26812;42.662;23.352;2022-10-19T04:04:22;95373.72;;;5.35;68.21
41062;BME280;26812;42.662;23.352;2022-10-19T04:06:48;95382.78;;;5.44;67.82
41062;BME280;26812;42.662;23.352;2022-10-19T04:09:16;95396.94;;;5.54;67.85
41062;BME280;26812;42.662;23.352;2022-10-19T04:11:42;95394.75;;;5.61;67.29
41062;BME280;26812;42.662;23.352;2022-10-19T04:14:10;95381.69;;;5.50;67.07
41062;BME280;26812;42.662;23.352;2022-10-19T04:16:36;95386.78;;;5.46;67.62
41062;BME280;26812;42.662;23.352;2022-10-19T04:19:02;95389.16;;;5.58;67.22
41062;BME280;26812;42.662;23.352;2022-10-19T04:21:33;95380.63;;;5.46;67.82
41062;BME280;26812;42.662;23.352;2022-10-19T04:26:29;95368.16;;;5.26;68.31
41062;BME280;26812;42.662;23.352;2022-10-19T04:28:58;95377.72;;;5.42;68.09
41062;BME280;26812;42.662;23.352;2022-10-19T04:31:25;95350.69;;;5.49;67.76
41062;BME280;26812;42.662;23.352;2022-10-19T04:33:50;95360.34;;;5.40;67.51
41062;BME280;26812;42.662;23.352;2022-10-19T04:36:16;95358.19;;;5.52;67.12
41062;BME280;26812;42.662;23.352;2022-10-19T04:38:41;95352.56;;;5.48;67.30
41062;BME280;26812;42.662;23.352;2022-10-19T04:41:12;95380.09;;;5.54;67.38
41062;BME280;26812;42.662;23.352;2022-10-19T04:43:37;95365.66;;;5.55;67.29
41062;BME280;26812;42.662;23.352;2022-10-19T04:46:05;95375.31;;;5.41;68.16
41062;BME280;26812;42.662;23.352;2022-10-19T04:48:32;95370.78;;;5.36;68.48
41062;BME280;26812;42.662;23.352;2022-10-19T04:50:58;95378.75;;;5.56;67.56
41062;BME280;26812;42.662;23.352;2022-10-19T04:53:23;95338.69;;;5.41;66.81
41062;BME280;26812;42.662;23.352;2022-10-19T04:55:49;95371.00;;;5.55;67.40
41062;BME280;26812;42.662;23.352;2022-10-19T04:58:15;95369.66;;;5.47;67.46
41062;BME280;26812;42.662;23.352;2022-10-19T05:00:40;95357.38;;;5.46;67.52
41062;BME280;26812;42.662;23.352;2022-10-19T05:03:05;95370.19;;;5.54;67.29
41062;BME280;26812;42.662;23.352;2022-10-19T05:05:37;95371.78;;;5.50;67.21
41062;BME280;26812;42.662;23.352;2022-10-19T05:08:03;95375.53;;;5.49;67.77
41062;BME280;26812;42.662;23.352;2022-10-19T05:10:29;95370.75;;;5.51;67.53
41062;BME280;26812;42.662;23.352;2022-10-19T05:12:54;95374.16;;;5.62;67.25
41062;BME280;26812;42.662;23.352;2022-10-19T05:15:20;95364.56;;;5.61;67.00
41062;BME280;26812;42.662;23.352;2022-10-19T05:17:45;95364.00;;;5.64;67.39
41062;BME280;26812;42.662;23.352;2022-10-19T05:20:11;95356.06;;;5.44;67.51
41062;BME280;26812;42.662;23.352;2022-10-19T05:22:37;95335.72;;;5.48;67.63
41062;BME280;26812;42.662;23.352;2022-10-19T05:25:03;95349.13;;;5.38;67.78
41062;BME280;26812;42.662;23.352;2022-10-19T05:27:28;95358.72;;;5.44;68.41
41062;BME280;26812;42.662;23.352;2022-10-19T05:29:54;95364.34;;;5.52;68.23
41062;BME280;26812;42.662;23.352;2022-10-19T05:32:19;95352.03;;;5.51;68.29
41062;BME280;26812;42.662;23.352;2022-10-19T05:34:45;95370.66;;;5.72;67.77
41062;BME280;26812;42.662;23.352;2022-10-19T05:37:10;95371.66;;;5.91;66.96
41062;BME280;26812;42.662;23.352;2022-10-19T05:39:35;95373.16;;;6.07;66.67
41062;BME280;26812;42.662;23.352;2022-10-19T05:42:01;95356.88;;;6.04;66.24
41062;BME280;26812;42.662;23.352;2022-10-19T05:44:26;95367.81;;;6.12;66.79
41062;BME280;26812;42.662;23.352;2022-10-19T05:46:52;95355.38;;;6.27;65.92
41062;BME280;26812;42.662;23.352;2022-10-19T05:49:18;95369.44;;;6.47;65.71
41062;BME280;26812;42.662;23.352;2022-10-19T05:51:44;95374.47;;;6.54;65.46
41062;BME280;26812;42.662;23.352;2022-10-19T05:54:11;95372.88;;;6.82;64.86
41062;BME280;26812;42.662;23.352;2022-10-19T05:56:37;95361.66;;;6.80;64.58
41062;BME280;26812;42.662;23.352;2022-10-19T05:59:06;95362.06;;;6.92;64.07
41062;BME280;26812;42.662;23.352;2022-10-19T06:01:33;95356.38;;;6.99;64.71
41062;BME280;26812;42.662;23.352;2022-10-19T06:04:00;95357.84;;;6.86;64.56
41062;BME280;26812;42.662;23.352;2022-10-19T06:06:26;95382.53;;;7.12;65.16
41062;BME280;26812;42.662;23.352;2022-10-19T06:08:55;95380.25;;;7.24;64.16
41062;BME280;26812;42.662;23.352;2022-10-19T06:11:23;95385.31;;;7.26;64.18
41062;BME280;26812;42.662;23.352;2022-10-19T06:13:52;95388.56;;;7.23;64.11
41062;BME280;26812;42.662;23.352;2022-10-19T06:16:19;95393.41;;;7.21;64.81
41062;BME280;26812;42.662;23.352;2022-10-19T06:18:45;95350.66;;;7.10;63.95
41062;BME280;26812;42.662;23.352;2022-10-19T06:21:15;95397.28;;;7.38;64.29
41062;BME280;26812;42.662;23.352;2022-10-19T06:23:41;95401.66;;;7.53;64.12
41062;BME280;26812;42.662;23.352;2022-10-19T06:26:10;95404.97;;;7.69;63.15
41062;BME280;26812;42.662;23.352;2022-10-19T06:28:40;95401.94;;;7.75;62.98
41062;BME280;26812;42.662;23.352;2022-10-19T06:31:10;95409.63;;;7.58;63.18
41062;BME280;26812;42.662;23.352;2022-10-19T06:33:38;95379.56;;;7.61;63.80
41062;BME280;26812;42.662;23.352;2022-10-19T06:36:11;95405.25;;;8.10;62.72
41062;BME280;26812;42.662;23.352;2022-10-19T06:38:37;95399.66;;;8.06;61.90
41062;BME280;26812;42.662;23.352;2022-10-19T06:41:03;95403.44;;;8.05;61.52
41062;BME280;26812;42.662;23.352;2022-10-19T06:43:29;95388.28;;;8.15;61.74
41062;BME280;26812;42.662;23.352;2022-10-19T06:45:54;95391.78;;;8.53;61.01
41062;BME280;26812;42.662;23.352;2022-10-19T06:48:20;95396.38;;;8.85;60.56
41062;BME280;26812;42.662;23.352;2022-10-19T06:50:45;95362.50;;;8.89;59.14
41062;BME280;26812;42.662;23.352;2022-10-19T06:53:11;95377.00;;;9.20;57.88
41062;BME280;26812;42.662;23.352;2022-10-19T06:55:36;95383.97;;;9.35;56.93
41062;BME280;26812;42.662;23.352;2022-10-19T06:58:02;95380.59;;;9.43;57.18
41062;BME280;26812;42.662;23.352;2022-10-19T07:00:28;95378.38;;;9.45;57.51
41062;BME280;26812;42.662;23.352;2022-10-19T07:02:54;95359.38;;;9.55;56.92
41062;BME280;26812;42.662;23.352;2022-10-19T07:05:28;95384.16;;;10.07;57.07
41062;BME280;26812;42.662;23.352;2022-10-19T07:07:56;95333.94;;;10.39;55.75
41062;BME280;26812;42.662;23.352;2022-10-19T07:10:22;95375.66;;;11.08;54.83
41062;BME280;26812;42.662;23.352;2022-10-19T07:12:47;95336.91;;;11.75;53.26
41062;BME280;26812;42.662;23.352;2022-10-19T07:15:13;95354.88;;;13.44;48.79
41062;BME280;26812;42.662;23.352;2022-10-19T07:17:38;95370.59;;;15.55;43.42
41062;BME280;26812;42.662;23.352;2022-10-19T07:20:04;95349.47;;;17.74;39.00
41062;BME280;26812;42.662;23.352;2022-10-19T07:22:29;95365.31;;;19.24;35.61
41062;BME280;26812;42.662;23.352;2022-10-19T07:24:55;95335.97;;;19.40;34.17
41062;BME280;26812;42.662;23.352;2022-10-19T07:27:20;95370.78;;;19.63;33.63
41062;BME280;26812;42.662;23.352;2022-10-19T07:29:46;95344.34;;;19.51;32.41
41062;BME280;26812;42.662;23.352;2022-10-19T07:32:11;95348.75;;;20.01;31.21
41062;BME280;26812;42.662;23.352;2022-10-19T07:34:37;95336.47;;;20.67;30.50
41062;BME280;26812;42.662;23.352;2022-10-19T07:37:02;95360.38;;;21.67;29.15
41062;BME280;26812;42.662;23.352;2022-10-19T07:39:27;95337.69;;;22.15;27.89
41062;BME280;26812;42.662;23.352;2022-10-19T07:41:53;95349.25;;;23.00;26.73
41062;BME280;26812;42.662;23.352;2022-10-19T07:44:18;95334.94;;;23.78;25.85
41062;BME280;26812;42.662;23.352;2022-10-19T07:46:44;95322.00;;;24.14;25.15
41062;BME280;26812;42.662;23.352;2022-10-19T07:49:13;95334.88;;;23.53;25.95
41062;BME280;26812;42.662;23.352;2022-10-19T07:51:40;95315.25;;;22.64;26.30
41062;BME280;26812;42.662;23.352;2022-10-19T07:54:06;95326.50;;;21.90;27.30
41062;BME280;26812;42.662;23.352;2022-10-19T07:56:32;95317.03;;;21.09;28.39
41062;BME280;26812;42.662;23.352;2022-10-19T07:58:58;95324.38;;;21.02;28.46
41062;BME280;26812;42.662;23.352;2022-10-19T08:01:37;95313.28;;;21.21;27.93
41062;BME280;26812;42.662;23.352;2022-10-19T08:04:05;95309.00;;;21.61;27.80
41062;BME280;26812;42.662;23.352;2022-10-19T08:06:30;95307.50;;;22.11;27.52
41062;BME280;26812;42.662;23.352;2022-10-19T08:08:56;95317.31;;;22.16;27.29
41062;BME280;26812;42.662;23.352;2022-10-19T08:11:24;95305.13;;;22.06;27.18
41062;BME280;26812;42.662;23.352;2022-10-19T08:13:51;95314.91;;;22.07;26.91
41062;BME280;26812;42.662;23.352;2022-10-19T08:18:58;95317.81;;;22.32;27.04
41062;BME280;26812;42.662;23.352;2022-10-19T08:21:26;95308.56;;;22.54;26.79
41062;BME280;26812;42.662;23.352;2022-10-19T08:23:51;95303.34;;;23.15;25.84
41062;BME280;26812;42.662;23.352;2022-10-19T08:26:17;95298.78;;;24.51;24.51
41062;BME280;26812;42.662;23.352;2022-10-19T08:28:42;95302.34;;;26.53;22.18
41062;BME280;26812;42.662;23.352;2022-10-19T08:31:17;95295.53;;;27.90;20.42
41062;BME280;26812;42.662;23.352;2022-10-19T08:33:43;95290.88;;;28.34;19.87
41062;BME280;26812;42.662;23.352;2022-10-19T08:36:09;95295.97;;;28.12;20.13
41062;BME280;26812;42.662;23.352;2022-10-19T08:38:36;95273.59;;;27.18;20.42
41062;BME280;26812;42.662;23.352;2022-10-19T08:43:58;95283.91;;;25.32;22.51
41062;BME280;26812;42.662;23.352;2022-10-19T08:49:02;95279.50;;;24.47;23.49
41062;BME280;26812;42.662;23.352;2022-10-19T08:51:37;95269.25;;;24.48;23.82
41062;BME280;26812;42.662;23.352;2022-10-19T08:54:05;95271.22;;;23.33;25.02
41062;BME280;26812;42.662;23.352;2022-10-19T08:56:41;95273.66;;;23.63;25.55
41062;BME280;26812;42.662;23.352;2022-10-19T08:59:28;95266.91;;;23.29;25.03
41062;BME280;26812;42.662;23.352;2022-10-19T09:02:02;95241.25;;;22.13;26.60
41062;BME280;26812;42.662;23.352;2022-10-19T09:04:32;95273.22;;;21.94;26.68
41062;BME280;26812;42.662;23.352;2022-10-19T09:07:21;95274.84;;;22.02;26.66
41062;BME280;26812;42.662;23.352;2022-10-19T09:09:50;95253.41;;;22.84;25.81
41062;BME280;26812;42.662;23.352;2022-10-19T09:12:28;95271.59;;;23.28;25.45
41062;BME280;26812;42.662;23.352;2022-10-19T09:14:59;95251.63;;;23.84;24.92
41062;BME280;26812;42.662;23.352;2022-10-19T09:17:26;95245.56;;;22.90;26.14
41062;BME280;26812;42.662;23.352;2022-10-19T09:19:52;95259.69;;;22.92;26.13
41062;BME280;26812;42.662;23.352;2022-10-19T09:22:25;95262.13;;;23.04;26.62
41062;BME280;26812;42.662;23.352;2022-10-19T09:24:57;95247.84;;;22.70;26.36
41062;BME280;26812;42.662;23.352;2022-10-19T09:27:29;95240.81;;;22.80;26.55
41062;BME280;26812;42.662;23.352;2022-10-19T09:30:00;95255.38;;;22.84;26.32
41062;BME280;26812;42.662;23.352;2022-10-19T09:35:00;95262.88;;;22.98;26.84
41062;BME280;26812;42.662;23.352;2022-10-19T09:37:27;95259.41;;;23.22;25.87
41062;BME280;26812;42.662;23.352;2022-10-19T09:39:53;95254.72;;;23.44;25.69
41062;BME280;26812;42.662;23.352;2022-10-19T09:42:31;95249.28;;;23.94;25.01
41062;BME280;26812;42.662;23.352;2022-10-19T09:45:08;95252.03;;;23.90;25.00
41062;BME280;26812;42.662;23.352;2022-10-19T09:47:39;95244.13;;;23.35;25.19
41062;BME280;26812;42.662;23.352;2022-10-19T09:50:20;95248.84;;;23.31;25.43
41062;BME280;26812;42.662;23.352;2022-10-19T09:52:48;95252.44;;;23.67;24.80
41062;BME280;26812;42.662;23.352;2022-10-19T09:57:44;95234.69;;;23.54;25.47
41062;BME280;26812;42.662;23.352;2022-10-19T10:00:23;95245.63;;;24.64;23.96
41062;BME280;26812;42.662;23.352;2022-10-19T10:02:53;95250.06;;;25.28;23.10
41062;BME280;26812;42.662;23.352;2022-10-19T10:05:19;95247.72;;;25.26;23.54
41062;BME280;26812;42.662;23.352;2022-10-19T10:07:54;95238.34;;;25.13;23.20
41062;BME280;26812;42.662;23.352;2022-10-19T10:10:27;95230.63;;;25.49;23.24
41062;BME280;26812;42.662;23.352;2022-10-19T10:12:53;95229.97;;;24.15;24.23
41062;BME280;26812;42.662;23.352;2022-10-19T10:15:26;95230.81;;;23.69;25.01
41062;BME280;26812;42.662;23.352;2022-10-19T10:17:54;95199.78;;;23.65;25.18
41062;BME280;26812;42.662;23.352;2022-10-19T10:20:26;95219.19;;;24.74;24.36
41062;BME280;26812;42.662;23.352;2022-10-19T10:22:58;95212.81;;;25.61;23.05
41062;BME280;26812;42.662;23.352;2022-10-19T10:25:33;95197.31;;;26.19;21.86
41062;BME280;26812;42.662;23.352;2022-10-19T10:28:22;95203.94;;;27.27;20.70
41062;BME280;26812;42.662;23.352;2022-10-19T10:30:54;95188.00;;;28.32;19.58
41062;BME280;26812;42.662;23.352;2022-10-19T10:33:25;95179.97;;;28.37;19.28
41062;BME280;26812;42.662;23.352;2022-10-19T10:35:54;95189.31;;;28.87;19.10
41062;BME280;26812;42.662;23.352;2022-10-19T10:38:27;95188.38;;;28.34;19.84
41062;BME280;26812;42.662;23.352;2022-10-19T10:41:09;95172.91;;;29.48;18.85
41062;BME280;26812;42.662;23.352;2022-10-19T10:43:48;95173.09;;;30.35;16.87
41062;BME280;26812;42.662;23.352;2022-10-19T10:46:25;95158.31;;;29.08;18.16
41062;BME280;26812;42.662;23.352;2022-10-19T10:48:55;95153.19;;;28.70;18.89
41062;BME280;26812;42.662;23.352;2022-10-19T10:54:21;95155.06;;;29.29;18.21
41062;BME280;26812;42.662;23.352;2022-10-19T10:57:13;95153.41;;;28.60;18.36
41062;BME280;26812;42.662;23.352;2022-10-19T11:02:22;95147.31;;;28.49;19.04
41062;BME280;26812;42.662;23.352;2022-10-19T11:04:59;95138.63;;;28.27;21.02
41062;BME280;26812;42.662;23.352;2022-10-19T11:07:27;95128.44;;;28.00;21.46
41062;BME280;26812;42.662;23.352;2022-10-19T11:09:59;95132.81;;;27.98;20.04
41062;BME280;26812;42.662;23.352;2022-10-19T11:12:37;95129.91;;;27.62;19.85
41062;BME280;26812;42.662;23.352;2022-10-19T11:15:10;95125.72;;;26.69;22.44
41062;BME280;26812;42.662;23.352;2022-10-19T11:17:40;95133.78;;;26.56;21.34
41062;BME280;26812;42.662;23.352;2022-10-19T11:20:14;95108.72;;;26.06;21.44
41062;BME280;26812;42.662;23.352;2022-10-19T11:22:50;95112.44;;;25.48;21.74
41062;BME280;26812;42.662;23.352;2022-10-19T11:30:25;95107.81;;;25.34;21.22
41062;BME280;26812;42.662;23.352;2022-10-19T11:33:05;95108.03;;;25.54;20.83
41062;BME280;26812;42.662;23.352;2022-10-19T11:44:18;95102.81;;;26.42;21.06
41062;BME280;26812;42.662;23.352;2022-10-19T11:57:25;95080.56;;;26.79;20.20
41062;BME280;26812;42.662;23.352;2022-10-19T12:05:03;95066.50;;;26.97;22.11
41062;BME280;26812;42.662;23.352;2022-10-19T12:10:46;95069.88;;;26.54;19.29
41062;BME280;26812;42.662;23.352;2022-10-19T12:13:19;95060.81;;;26.81;21.57
41062;BME280;26812;42.662;23.352;2022-10-19T12:15:50;95063.72;;;27.01;18.76
41062;BME280;26812;42.662;23.352;2022-10-19T12:18:33;95064.22;;;26.65;20.40
41062;BME280;26812;42.662;23.352;2022-10-19T12:21:02;95057.22;;;26.23;19.44
41062;BME280;26812;42.662;23.352;2022-10-19T12:23:34;95053.41;;;26.47;19.10
41062;BME280;26812;42.662;23.352;2022-10-19T12:26:08;95050.13;;;26.83;19.24
41062;BME280;26812;42.662;23.352;2022-10-19T12:28:37;95054.44;;;27.11;19.86
41062;BME280;26812;42.662;23.352;2022-10-19T12:31:03;95046.34;;;27.00;18.33
41062;BME280;26812;42.662;23.352;2022-10-19T12:38:59;95053.44;;;26.44;18.60
41062;BME280;26812;42.662;23.352;2022-10-19T12:47:17;95038.53;;;26.91;18.95
41062;BME280;26812;42.662;23.352;2022-10-19T12:49:45;95036.25;;;26.86;18.87
41062;BME280;26812;42.662;23.352;2022-10-19T12:52:12;95043.56;;;27.00;19.27
41062;BME280;26812;42.662;23.352;2022-10-19T12:54:39;95048.78;;;26.95;18.84
41062;BME280;26812;42.662;23.352;2022-10-19T12:57:22;95032.50;;;27.00;19.58
41062;BME280;26812;42.662;23.352;2022-10-19T13:00:18;95046.28;;;27.27;18.29
41062;BME280;26812;42.662;23.352;2022-10-19T13:02:46;95031.06;;;27.15;18.16
41062;BME280;26812;42.662;23.352;2022-10-19T13:05:23;95037.56;;;26.78;19.20
41062;BME280;26812;42.662;23.352;2022-10-19T13:07:51;95026.31;;;26.05;19.46
41062;BME280;26812;42.662;23.352;2022-10-19T13:10:22;95025.53;;;26.04;19.81
41062;BME280;26812;42.662;23.352;2022-10-19T13:12:49;95036.66;;;25.97;20.30
41062;BME280;26812;42.662;23.352;2022-10-19T13:18:10;95017.31;;;25.97;19.79
41062;BME280;26812;42.662;23.352;2022-10-19T13:25:33;95024.75;;;25.69;20.65
41062;BME280;26812;42.662;23.352;2022-10-19T13:35:48;95027.69;;;25.07;21.76
41062;BME280;26812;42.662;23.352;2022-10-19T13:41:25;95014.97;;;25.61;21.63
41062;BME280;26812;42.662;23.352;2022-10-19T13:49:55;95014.13;;;26.86;20.51
41062;BME280;26812;42.662;23.352;2022-10-19T13:55:26;95015.13;;;26.15;21.63
41062;BME280;26812;42.662;23.352;2022-10-19T13:58:22;95002.28;;;25.30;22.83
41062;BME280;26812;42.662;23.352;2022-10-19T14:03:39;95003.09;;;24.16;23.97
41062;BME280;26812;42.662;23.352;2022-10-19T14:09:09;94991.25;;;23.14;25.21
41062;BME280;26812;42.662;23.352;2022-10-19T14:11:42;94993.63;;;23.01;25.22
41062;BME280;26812;42.662;23.352;2022-10-19T14:16:44;94987.72;;;22.78;26.07
41062;BME280;26812;42.662;23.352;2022-10-19T14:19:21;94987.34;;;22.76;25.98
41062;BME280;26812;42.662;23.352;2022-10-19T14:21:51;94994.41;;;22.66;26.38
41062;BME280;26812;42.662;23.352;2022-10-19T14:24:27;94994.00;;;22.57;26.27
41062;BME280;26812;42.662;23.352;2022-10-19T14:26:53;94988.84;;;22.20;27.05
41062;BME280;26812;42.662;23.352;2022-10-19T14:29:19;95003.75;;;22.22;26.62
41062;BME280;26812;42.662;23.352;2022-10-19T14:31:45;95004.13;;;22.17;26.50
41062;BME280;26812;42.662;23.352;2022-10-19T14:34:12;94999.38;;;22.04;26.70
41062;BME280;26812;42.662;23.352;2022-10-19T14:36:43;94994.59;;;21.86;26.84
41062;BME280;26812;42.662;23.352;2022-10-19T14:39:22;95016.16;;;21.81;27.05
41062;BME280;26812;42.662;23.352;2022-10-19T14:41:52;94996.47;;;21.61;27.58
41062;BME280;26812;42.662;23.352;2022-10-19T14:44:42;94955.53;;;21.20;27.80
41062;BME280;26812;42.662;23.352;2022-10-19T14:49:41;95002.47;;;21.15;28.50
41062;BME280;26812;42.662;23.352;2022-10-19T14:52:08;95009.13;;;21.14;28.60
41062;BME280;26812;42.662;23.352;2022-10-19T14:54:41;95012.09;;;20.95;29.07
41062;BME280;26812;42.662;23.352;2022-10-19T14:57:18;95022.28;;;20.98;29.06
41062;BME280;26812;42.662;23.352;2022-10-19T15:00:03;95013.19;;;20.83;29.34
41062;BME280;26812;42.662;23.352;2022-10-19T15:05:04;95020.78;;;20.53;30.24
41062;BME280;26812;42.662;23.352;2022-10-19T15:07:40;95028.88;;;20.45;30.27